Time;durP1;ratioP1;P1;durP2;ratioP2;P2;SDS_P1;SDS_P2;PMS_P1;PMS_P2;Temp;Humidity;BMP_temperature;BMP_pressure;BME280_temperature;BME280_humidity;BME280_pressure;Samples;Min_cycle;Max_cycle;Signal;HPM_P1;HPM_P2
2022/05/14 00:01:21;;;;;;;1999.90;999.90;;;;;;;15.47;100.00;95235.81;5116735;28;20187;-60
2022/05/14 00:03:47;;;;;;;1999.90;999.90;;;;;;;15.48;100.00;95244.84;5117036;28;20186;-58
2022/05/14 00:06:20;;;;;;;1999.90;999.90;;;;;;;15.54;100.00;95243.84;5116308;28;20318;-59
2022/05/14 00:08:47;;;;;;;1999.90;999.90;;;;;;;15.59;100.00;95243.31;5114563;28;20208;-58
2022/05/14 00:13:57;;;;;;;1999.90;999.90;;;;;;;15.66;100.00;95240.34;5114337;28;20225;-58
2022/05/14 00:16:24;;;;;;;1999.90;999.90;;;;;;;15.70;100.00;95243.00;5095749;28;20203;-58
2022/05/14 00:18:51;;;;;;;1999.90;999.90;;;;;;;15.71;100.00;95245.31;5096295;28;20184;-57
2022/05/14 00:21:17;;;;;;;1999.90;999.90;;;;;;;15.74;100.00;95246.41;5096339;28;20187;-59
2022/05/14 00:23:43;;;;;;;1999.90;999.90;;;;;;;15.74;100.00;95252.66;5095994;28;20278;-59
2022/05/14 00:26:08;;;;;;;1999.90;999.90;;;;;;;15.76;100.00;95241.22;5095965;28;20295;-60
2022/05/14 00:28:34;;;;;;;1999.90;999.90;;;;;;;15.79;100.00;95232.88;5096174;28;20229;-58
2022/05/14 00:30:59;;;;;;;1999.90;999.90;;;;;;;15.75;100.00;95237.72;5096359;28;20183;-58
2022/05/14 00:33:24;;;;;;;1999.90;999.90;;;;;;;15.79;100.00;95241.13;5096262;28;20183;-59
2022/05/14 00:35:50;;;;;;;1999.90;999.90;;;;;;;15.78;100.00;95247.81;5096271;28;20204;-55
2022/05/14 00:38:15;;;;;;;1999.90;999.90;;;;;;;15.76;100.00;95244.75;5095702;28;20207;-59
2022/05/14 00:40:46;;;;;;;1999.90;999.90;;;;;;;15.73;100.00;95245.63;5096138;28;20245;-58
2022/05/14 00:43:12;;;;;;;1999.90;999.90;;;;;;;15.79;100.00;95243.09;5096256;28;20270;-58
2022/05/14 00:45:55;;;;;;;1999.90;999.90;;;;;;;15.84;100.00;95242.53;5096256;28;20196;-58
2022/05/14 00:48:23;;;;;;;1999.90;999.90;;;;;;;15.85;100.00;95242.09;5096313;28;20219;-59
2022/05/14 00:50:54;;;;;;;1999.90;999.90;;;;;;;15.83;100.00;95241.78;5095949;28;20183;-60
2022/05/14 00:53:24;;;;;;;1999.90;999.90;;;;;;;15.85;100.00;95242.09;5096262;28;20257;-60
2022/05/14 00:55:52;;;;;;;1999.90;999.90;;;;;;;15.81;100.00;95240.69;5095591;28;20192;-60
2022/05/14 00:58:37;;;;;;;1999.90;999.90;;;;;;;15.75;100.00;95234.97;5095682;28;20237;-67
2022/05/14 01:01:03;;;;;;;1999.90;999.90;;;;;;;15.69;100.00;95241.44;5095363;28;20208;-69
2022/05/14 01:03:29;;;;;;;1999.90;999.90;;;;;;;15.63;100.00;95237.72;5095371;28;20180;-70
2022/05/14 01:05:57;;;;;;;1999.90;999.90;;;;;;;15.56;100.00;95238.66;5095245;28;20204;-69
2022/05/14 01:08:22;;;;;;;1999.90;999.90;;;;;;;15.48;100.00;95231.84;5095942;28;20195;-69
2022/05/14 01:10:48;;;;;;;1999.90;999.90;;;;;;;15.40;100.00;95227.75;5098947;28;20183;-68
2022/05/14 01:13:14;;;;;;;1999.90;999.90;;;;;;;15.31;100.00;95237.84;5098853;28;20215;-76
2022/05/14 01:15:49;;;;;;;1999.90;999.90;;;;;;;15.16;100.00;95242.97;5099019;28;20186;-58
2022/05/14 01:18:22;;;;;;;1999.90;999.90;;;;;;;15.10;100.00;95244.72;5098952;28;20208;-58
2022/05/14 01:20:52;;;;;;;1999.90;999.90;;;;;;;15.05;100.00;95242.47;5098676;28;20175;-58
2022/05/14 01:26:50;;;;;;;1999.90;999.90;;;;;;;14.91;100.00;95248.41;5112543;28;20231;-59
2022/05/14 01:29:21;;;;;;;1999.90;999.90;;;;;;;14.79;100.00;95240.84;5099407;28;20188;-59
2022/05/14 01:31:48;;;;;;;1999.90;999.90;;;;;;;14.71;100.00;95233.25;5099041;28;20270;-59
2022/05/14 01:34:20;;;;;;;1999.90;999.90;;;;;;;14.56;100.00;95238.34;5098655;28;20311;-59
2022/05/14 01:36:45;;;;;;;1999.90;999.90;;;;;;;14.53;100.00;95244.69;5099270;28;20206;-58
2022/05/14 01:39:11;;;;;;;1999.90;999.90;;;;;;;14.49;100.00;95233.00;5098479;28;20628;-58
2022/05/14 01:41:37;;;;;;;1999.90;999.90;;;;;;;14.47;100.00;95234.66;5098768;28;20182;-57
2022/05/14 01:44:03;;;;;;;1999.90;999.90;;;;;;;14.41;100.00;95237.16;5098739;28;20167;-58
2022/05/14 01:46:28;;;;;;;1999.90;999.90;;;;;;;14.37;100.00;95236.47;5098072;28;20249;-58
2022/05/14 01:48:54;;;;;;;1999.90;999.90;;;;;;;14.36;100.00;95234.94;5098576;28;20209;-59
2022/05/14 01:51:19;;;;;;;1999.90;999.90;;;;;;;14.33;100.00;95229.53;5098533;28;20187;-59
2022/05/14 01:53:45;;;;;;;1999.90;999.90;;;;;;;14.26;100.00;95230.47;5098267;28;20184;-58
2022/05/14 01:56:11;;;;;;;1999.90;999.90;;;;;;;14.17;100.00;95227.53;5098495;28;20188;-57
2022/05/14 01:58:37;;;;;;;1999.90;999.90;;;;;;;14.13;100.00;95229.59;5098118;28;20188;-58
2022/05/14 02:01:18;;;;;;;1999.90;999.90;;;;;;;14.13;100.00;95218.59;5098203;28;20188;-57
2022/05/14 02:03:47;;;;;;;1999.90;999.90;;;;;;;14.11;100.00;95222.97;5098462;28;20187;-58
2022/05/14 02:06:15;;;;;;;1999.90;999.90;;;;;;;14.13;100.00;95224.09;5098155;28;20204;-57
2022/05/14 02:08:41;;;;;;;1999.90;999.90;;;;;;;14.10;100.00;95222.22;5097876;28;20278;-59
2022/05/14 02:11:08;;;;;;;1999.90;999.90;;;;;;;14.10;100.00;95216.75;5097845;28;20242;-60
2022/05/14 02:13:34;;;;;;;1999.90;999.90;;;;;;;14.15;100.00;95213.47;5098117;28;20278;-60
2022/05/14 02:15:59;;;;;;;1999.90;999.90;;;;;;;14.16;100.00;95201.25;5097962;28;20187;-60
2022/05/14 02:18:25;;;;;;;1999.90;999.90;;;;;;;14.20;100.00;95204.69;5097984;28;20212;-59
2022/05/14 02:20:51;;;;;;;1999.90;999.90;;;;;;;14.24;100.00;95205.41;5097774;28;20188;-60
2022/05/14 02:23:16;;;;;;;1999.90;999.90;;;;;;;14.25;100.00;95201.47;5097821;28;20194;-60
2022/05/14 02:25:42;;;;;;;1999.90;999.90;;;;;;;14.25;100.00;95198.72;5097897;28;20208;-68
2022/05/14 02:28:08;;;;;;;1999.90;999.90;;;;;;;14.23;100.00;95192.09;5097896;28;20192;-68
2022/05/14 02:30:33;;;;;;;1999.90;999.90;;;;;;;14.15;100.00;95194.22;5097683;28;20194;-59
2022/05/14 02:32:58;;;;;;;1999.90;999.90;;;;;;;14.06;100.00;95196.03;5097723;28;20217;-59
2022/05/14 02:35:24;;;;;;;1999.90;999.90;;;;;;;14.02;100.00;95196.13;5098070;28;20272;-58
2022/05/14 02:37:49;;;;;;;1999.90;999.90;;;;;;;13.99;100.00;95194.22;5098024;28;20268;-59
2022/05/14 02:40:15;;;;;;;1999.90;999.90;;;;;;;13.94;100.00;95200.25;5097504;28;20233;-59
2022/05/14 02:42:40;;;;;;;1999.90;999.90;;;;;;;13.86;100.00;95201.63;5097957;28;20196;-59
2022/05/14 02:45:06;;;;;;;1999.90;999.90;;;;;;;13.81;100.00;95202.16;5097477;28;20191;-69
2022/05/14 02:47:32;;;;;;;1999.90;999.90;;;;;;;13.78;100.00;95203.00;5097074;28;20247;-67
2022/05/14 02:49:58;;;;;;;1999.90;999.90;;;;;;;13.65;100.00;95196.63;5097189;28;20275;-67
2022/05/14 02:52:23;;;;;;;1999.90;999.90;;;;;;;13.62;100.00;95200.22;5097348;28;20198;-67
2022/05/14 02:54:49;;;;;;;1999.90;999.90;;;;;;;13.58;100.00;95196.78;5097118;28;20218;-66
2022/05/14 02:57:15;;;;;;;1999.90;999.90;;;;;;;13.55;100.00;95186.66;5097474;28;20194;-67
2022/05/14 02:59:41;;;;;;;1999.90;999.90;;;;;;;13.51;100.00;95196.19;5097077;28;20187;-67
2022/05/14 03:02:07;;;;;;;1999.90;999.90;;;;;;;13.44;100.00;95199.84;5097172;28;20186;-68
2022/05/14 03:04:37;;;;;;;1999.90;999.90;;;;;;;13.37;100.00;95193.75;5097500;28;20184;-60
2022/05/14 03:07:06;;;;;;;1999.90;999.90;;;;;;;13.35;100.00;95194.19;5097387;28;20207;-68
2022/05/14 03:09:32;;;;;;;1999.90;999.90;;;;;;;13.33;100.00;95191.06;5097096;28;20187;-71
2022/05/14 03:11:58;;;;;;;1999.90;999.90;;;;;;;13.32;100.00;95203.25;5097050;28;20203;-69
2022/05/14 03:14:23;;;;;;;1999.90;999.90;;;;;;;13.27;100.00;95201.03;5096989;28;20195;-70
2022/05/14 03:16:49;;;;;;;1999.90;999.90;;;;;;;13.27;100.00;95201.03;5097198;28;20302;-71
2022/05/14 03:19:14;;;;;;;1999.90;999.90;;;;;;;13.30;100.00;95197.44;5097117;28;20209;-71
2022/05/14 03:21:40;;;;;;;1999.90;999.90;;;;;;;13.25;100.00;95190.47;5096874;28;20198;-58
2022/05/14 03:24:07;;;;;;;1999.90;999.90;;;;;;;13.28;100.00;95194.34;5097047;28;20188;-58
2022/05/14 03:26:32;;;;;;;1999.90;999.90;;;;;;;13.36;100.00;95189.47;5096483;28;20215;-60
2022/05/14 03:28:58;;;;;;;1999.90;999.90;;;;;;;13.36;100.00;95190.22;5096897;28;20187;-59
2022/05/14 03:31:23;;;;;;;1999.90;999.90;;;;;;;13.41;100.00;95181.53;5095902;28;20184;-59
2022/05/14 03:33:49;;;;;;;1999.90;999.90;;;;;;;13.43;100.00;95184.59;5097066;28;20202;-60
2022/05/14 03:36:15;;;;;;;1999.90;999.90;;;;;;;13.48;100.00;95186.84;5096530;28;20217;-59
2022/05/14 03:38:40;;;;;;;1999.90;999.90;;;;;;;13.49;100.00;95187.59;5096366;28;20199;-59
2022/05/14 03:41:05;;;;;;;1999.90;999.90;;;;;;;13.52;100.00;95195.78;5096637;28;20206;-67
2022/05/14 03:43:31;;;;;;;1999.90;999.90;;;;;;;13.57;100.00;95189.75;5096633;28;20183;-60
2022/05/14 03:45:58;;;;;;;1999.90;999.90;;;;;;;13.59;100.00;95187.38;5096332;28;20203;-59
2022/05/14 03:48:24;;;;;;;1999.90;999.90;;;;;;;13.64;100.00;95189.59;5096889;28;20195;-59
2022/05/14 03:50:50;;;;;;;1999.90;999.90;;;;;;;13.62;100.00;95191.22;5096561;28;20184;-59
2022/05/14 03:53:15;;;;;;;1999.90;999.90;;;;;;;13.59;100.00;95192.88;5096363;28;20210;-59
2022/05/14 03:55:41;;;;;;;1999.90;999.90;;;;;;;13.61;100.00;95195.94;5096635;28;20218;-59
2022/05/14 03:58:06;;;;;;;1999.90;999.90;;;;;;;13.54;100.00;95196.09;5096527;28;20263;-58
2022/05/14 04:00:31;;;;;;;1999.90;999.90;;;;;;;13.51;100.00;95193.44;5096216;28;20187;-61
2022/05/14 04:02:57;;;;;;;1999.90;999.90;;;;;;;13.47;100.00;95198.25;5096763;28;20539;-60
2022/05/14 04:05:22;;;;;;;1999.90;999.90;;;;;;;13.44;100.00;95202.59;5096236;28;20195;-59
2022/05/14 04:07:48;;;;;;;1999.90;999.90;;;;;;;13.45;100.00;95195.94;5096423;28;20187;-60
2022/05/14 04:10:16;;;;;;;1999.90;999.90;;;;;;;13.60;100.00;95199.09;5096639;28;20251;-59
2022/05/14 04:12:42;;;;;;;1999.90;999.90;;;;;;;13.73;100.00;95211.72;5095953;28;20187;-60
2022/05/14 04:15:09;;;;;;;1999.90;999.90;;;;;;;13.89;100.00;95205.47;5096463;28;20210;-60
2022/05/14 04:17:34;;;;;;;1999.90;999.90;;;;;;;14.06;100.00;95196.81;5095960;28;20215;-59
2022/05/14 04:20:00;;;;;;;1999.90;999.90;;;;;;;14.21;100.00;95194.50;5096283;28;20199;-60
2022/05/14 04:22:25;;;;;;;1999.90;999.90;;;;;;;14.30;100.00;95198.19;5096389;28;20278;-58
2022/05/14 04:24:50;;;;;;;1999.90;999.90;;;;;;;14.31;100.00;95210.72;5096294;28;20180;-60
2022/05/14 04:27:16;;;;;;;1999.90;999.90;;;;;;;14.44;100.00;95213.53;5095933;28;20218;-61
2022/05/14 04:29:41;;;;;;;1999.90;999.90;;;;;;;14.54;100.00;95227.03;5095927;28;20222;-61
2022/05/14 04:32:07;;;;;;;1999.90;999.90;;;;;;;14.70;100.00;95232.47;5096526;28;20189;-61
2022/05/14 04:34:32;;;;;;;1999.90;999.90;;;;;;;14.85;100.00;95244.63;5096058;28;20191;-60
2022/05/14 04:36:58;;;;;;;1999.90;999.90;;;;;;;15.07;100.00;95240.09;5095878;28;20188;-67
2022/05/14 04:39:31;;;;;;;1999.90;999.90;;;;;;;15.34;100.00;95245.22;5095781;28;20228;-72
2022/05/14 04:42:06;;;;;;;1999.90;999.90;;;;;;;15.42;100.00;95261.13;5095672;28;20194;-68
2022/05/14 04:44:32;;;;;;;1999.90;999.90;;;;;;;15.39;100.00;95270.25;5099292;28;20186;-79
2022/05/14 04:46:58;;;;;;;1999.90;999.90;;;;;;;15.31;100.00;95266.13;5099414;28;20271;-71
2022/05/14 04:49:23;;;;;;;1999.90;999.90;;;;;;;15.25;100.00;95267.88;5099653;28;20218;-68
2022/05/14 04:51:49;;;;;;;1999.90;999.90;;;;;;;15.23;100.00;95261.25;5099417;28;20179;-65
2022/05/14 04:54:15;;;;;;;1999.90;999.90;;;;;;;15.37;100.00;95266.41;5099168;28;20274;-60
2022/05/14 04:56:41;;;;;;;1999.90;999.90;;;;;;;15.48;100.00;95270.38;5099555;28;20210;-58
2022/05/14 04:59:07;;;;;;;1999.90;999.90;;;;;;;15.65;100.00;95279.31;5099289;28;20179;-58
2022/05/14 05:01:33;;;;;;;1999.90;999.90;;;;;;;15.92;100.00;95287.97;5099392;28;20272;-59
2022/05/14 05:03:58;;;;;;;1999.90;999.90;;;;;;;16.23;100.00;95295.22;5099078;28;20215;-58
2022/05/14 05:06:24;;;;;;;1999.90;999.90;;;;;;;16.52;100.00;95297.09;5098752;28;20214;-59
2022/05/14 05:08:52;;;;;;;1999.90;999.90;;;;;;;16.66;100.00;95316.72;5098641;28;20171;-59
2022/05/14 05:11:18;;;;;;;1999.90;999.90;;;;;;;16.71;100.00;95327.16;5098743;28;20241;-63
2022/05/14 05:13:44;;;;;;;1999.90;999.90;;;;;;;16.74;100.00;95331.03;5098948;28;20191;-61
2022/05/14 05:16:10;;;;;;;1999.90;999.90;;;;;;;16.64;100.00;95337.69;5098816;28;20191;-62
2022/05/14 05:18:36;;;;;;;1999.90;999.90;;;;;;;16.71;100.00;95346.47;5098930;28;20245;-62
2022/05/14 05:21:02;;;;;;;1999.90;999.90;;;;;;;16.94;100.00;95345.34;5098850;28;20296;-61
2022/05/14 05:23:27;;;;;;;1999.90;999.90;;;;;;;17.83;100.00;95339.81;5099186;28;20184;-62
2022/05/14 05:25:54;;;;;;;1999.90;999.90;;;;;;;18.73;100.00;95361.63;5098646;28;20214;-62
2022/05/14 05:28:21;;;;;;;1999.90;999.90;;;;;;;18.62;100.00;95397.25;5098822;28;20191;-61
2022/05/14 05:30:46;;;;;;;1999.90;999.90;;;;;;;19.04;100.00;95409.38;5098848;28;20279;-59
2022/05/14 05:33:13;;;;;;;1999.90;999.90;;;;;;;19.77;100.00;95426.91;5098555;28;20214;-61
2022/05/14 05:35:39;;;;;;;1999.90;999.90;;;;;;;20.46;100.00;95450.75;5116272;28;20183;-61
2022/05/14 05:38:04;;;;;;;1999.90;999.90;;;;;;;21.34;100.00;95469.59;5098995;28;20183;-61
2022/05/14 05:40:30;;;;;;;1999.90;999.90;;;;;;;21.97;100.00;95519.28;5098492;28;20195;-62
2022/05/14 05:42:55;;;;;;;1999.90;999.90;;;;;;;21.79;100.00;95555.59;5098580;28;20192;-61
2022/05/14 05:45:20;;;;;;;1999.90;999.90;;;;;;;21.99;100.00;95574.44;5098086;28;20205;-60
2022/05/14 05:47:46;;;;;;;1999.90;999.90;;;;;;;21.59;100.00;95599.81;5098699;28;20287;-62
2022/05/14 05:50:12;;;;;;;1999.90;999.90;;;;;;;21.63;100.00;95600.41;5098312;28;20179;-68
2022/05/14 05:52:38;;;;;;;1999.90;999.90;;;;;;;20.97;100.00;95612.63;5098447;28;20191;-61
2022/05/14 05:57:47;;;;;;;1999.90;999.90;;;;;;;19.54;100.00;95597.31;5116380;28;20194;-60
2022/05/14 06:00:16;;;;;;;1999.90;999.90;;;;;;;19.12;100.00;95590.59;5098474;28;20184;-61
2022/05/14 06:02:42;;;;;;;1999.90;999.90;;;;;;;18.93;100.00;95580.66;5097864;28;20190;-61
2022/05/14 06:05:08;;;;;;;1999.90;999.90;;;;;;;18.81;100.00;95570.44;5098182;28;20200;-61
2022/05/14 06:07:34;;;;;;;1999.90;999.90;;;;;;;19.00;100.00;95558.25;5098104;28;20215;-60
2022/05/14 06:10:01;;;;;;;1999.90;999.90;;;;;;;19.41;100.00;95555.06;5098120;28;20241;-62
2022/05/14 06:12:27;;;;;;;1999.90;999.90;;;;;;;19.71;100.00;95557.03;5098084;28;20195;-61
2022/05/14 06:14:52;;;;;;;1999.90;999.90;;;;;;;20.94;100.00;95546.91;5098232;28;20198;-61
2022/05/14 06:17:17;;;;;;;1999.90;999.90;;;;;;;21.42;100.00;95581.97;5098079;28;20257;-61
2022/05/14 06:19:43;;;;;;;1999.90;999.90;;;;;;;21.09;100.00;95603.34;5098443;28;20199;-61
2022/05/14 06:22:08;;;;;;;1999.90;999.90;;;;;;;20.72;100.00;95612.94;5098351;28;20212;-61
2022/05/14 06:24:37;;;;;;;1999.90;999.90;;;;;;;20.48;100.00;95625.91;5097724;28;20202;-61
2022/05/14 06:27:02;;;;;;;1999.90;999.90;;;;;;;20.58;100.00;95643.34;5097880;28;20200;-70
2022/05/14 06:29:29;;;;;;;1999.90;999.90;;;;;;;20.75;100.00;95631.44;5097897;28;20195;-61
2022/05/14 06:31:54;;;;;;;1999.90;999.90;;;;;;;20.71;100.00;95644.72;5098127;28;20255;-61
2022/05/14 06:34:19;;;;;;;1999.90;999.90;;;;;;;20.69;100.00;95641.63;5097527;28;20211;-63
2022/05/14 06:36:45;;;;;;;1999.90;999.90;;;;;;;20.60;100.00;95649.97;5097850;28;20184;-62
2022/05/14 06:39:10;;;;;;;1999.90;999.90;;;;;;;20.17;100.00;95650.19;5097754;28;20270;-62
2022/05/14 06:41:35;;;;;;;1999.90;999.90;;;;;;;20.69;100.00;95638.84;5097764;28;20240;-62
2022/05/14 06:44:01;;;;;;;1999.90;999.90;;;;;;;21.10;100.00;95637.47;5097247;28;20194;-63
2022/05/14 06:46:26;;;;;;;1999.90;999.90;;;;;;;21.77;100.00;95665.72;5097474;28;20298;-62
2022/05/14 06:48:51;;;;;;;1999.90;999.90;;;;;;;23.06;100.00;95671.63;5097661;28;20191;-63
2022/05/14 06:51:22;;;;;;;1999.90;999.90;;;;;;;22.98;100.00;95682.34;5097766;28;20186;-61
2022/05/14 06:53:50;;;;;;;1999.90;999.90;;;;;;;23.68;98.72;95706.53;5097078;28;20320;-62
2022/05/14 06:56:18;;;;;;;1999.90;999.90;;;;;;;23.69;95.11;95712.88;5097813;28;20192;-62
2022/05/14 06:58:48;;;;;;;1999.90;999.90;;;;;;;24.03;96.21;95759.66;5097331;28;20244;-62
2022/05/14 07:01:15;;;;;;;1999.90;999.90;;;;;;;23.89;93.19;95793.91;5097215;28;20246;-62
2022/05/14 07:06:39;;;;;;;1999.90;999.90;;;;;;;24.93;78.11;95803.25;5114241;28;20210;-67
2022/05/14 07:09:27;;;;;;;1999.90;999.90;;;;;;;25.47;69.14;95802.47;5097589;28;20225;-67
2022/05/14 07:12:03;;;;;;;1999.90;999.90;;;;;;;26.23;64.19;95799.00;5097608;28;20188;-67
2022/05/14 07:14:30;;;;;;;1999.90;999.90;;;;;;;26.59;58.77;95801.09;5097453;28;20191;-67
2022/05/14 07:16:56;;;;;;;1999.90;999.90;;;;;;;25.86;59.04;95800.91;5096761;28;20292;-66
2022/05/14 07:19:22;;;;;;;1999.90;999.90;;;;;;;26.79;58.75;95797.41;5097083;28;20179;-68
2022/05/14 07:21:49;;;;;;;1999.90;999.90;;;;;;;27.12;55.54;95797.63;5096673;28;20188;-59
2022/05/14 07:24:18;;;;;;;1999.90;999.90;;;;;;;27.46;56.03;95794.50;5096536;28;20193;-61
2022/05/14 07:26:44;;;;;;;1999.90;999.90;;;;;;;28.51;48.17;95791.97;5097038;28;20207;-61
2022/05/14 07:29:14;;;;;;;1999.90;999.90;;;;;;;28.24;48.88;95796.28;5096672;28;20211;-61
2022/05/14 07:31:40;;;;;;;1999.90;999.90;;;;;;;28.64;47.40;95795.06;5096659;28;20179;-62
2022/05/14 07:34:06;;;;;;;1999.90;999.90;;;;;;;29.07;47.51;95792.72;5096961;28;20184;-62
2022/05/14 07:36:40;;;;;;;1999.90;999.90;;;;;;;29.14;46.92;95797.81;5096639;28;20221;-62
2022/05/14 07:39:06;;;;;;;1999.90;999.90;;;;;;;29.51;41.55;95799.00;5096896;28;20183;-71
2022/05/14 07:41:33;;;;;;;1999.90;999.90;;;;;;;29.78;41.02;95800.16;5097085;28;20182;-60
2022/05/14 07:44:01;;;;;;;1999.90;999.90;;;;;;;27.66;46.10;95791.53;5096479;28;20274;-60
2022/05/14 07:46:31;;;;;;;1999.90;999.90;;;;;;;26.75;48.26;95796.88;5096877;28;20191;-60
2022/05/14 07:48:58;;;;;;;1999.90;999.90;;;;;;;26.48;49.57;95786.97;5096118;28;20184;-60
2022/05/14 07:51:25;;;;;;;1999.90;999.90;;;;;;;26.26;49.74;95789.59;5096376;28;20190;-60
2022/05/14 07:53:51;;;;;;;1999.90;999.90;;;;;;;25.64;52.53;95789.47;5096365;28;20209;-60
2022/05/14 07:56:16;;;;;;;1999.90;999.90;;;;;;;25.09;53.01;95788.72;5096386;28;20188;-60
2022/05/14 07:58:43;;;;;;;1999.90;999.90;;;;;;;25.93;47.51;95789.25;5096210;28;20212;-68
2022/05/14 08:01:09;;;;;;;1999.90;999.90;;;;;;;26.76;45.50;95782.38;5096295;28;20184;-58
2022/05/14 08:03:34;;;;;;;1999.90;999.90;;;;;;;27.46;45.37;95786.09;5114358;28;20263;-58
2022/05/14 08:06:00;;;;;;;1999.90;999.90;;;;;;;27.32;45.28;95787.03;5096475;28;20212;-58
2022/05/14 08:08:26;;;;;;;1999.90;999.90;;;;;;;28.02;44.55;95787.84;5096164;28;20179;-58
2022/05/14 08:10:52;;;;;;;1999.90;999.90;;;;;;;28.90;43.84;95786.31;5095973;28;20209;-57
2022/05/14 08:13:19;;;;;;;1999.90;999.90;;;;;;;28.83;42.61;95784.03;5095805;28;20179;-57
2022/05/14 08:15:46;;;;;;;1999.90;999.90;;;;;;;29.14;41.67;95786.56;5096698;28;20195;-60
2022/05/14 08:18:12;;;;;;;1999.90;999.90;;;;;;;29.39;39.64;95785.47;5095698;28;20593;-61
2022/05/14 08:20:39;;;;;;;1999.90;999.90;;;;;;;29.03;39.68;95784.56;5096403;28;20188;-61
2022/05/14 08:25:56;;;;;;;1999.90;999.90;;;;;;;29.93;38.91;95783.72;5114396;28;20264;-62
2022/05/14 08:28:21;;;;;;;1999.90;999.90;;;;;;;30.75;36.21;95790.84;5096063;28;20188;-63
2022/05/14 08:30:46;;;;;;;1999.90;999.90;;;;;;;31.48;34.39;95786.78;5095823;28;20333;-62
2022/05/14 08:33:12;;;;;;;1999.90;999.90;;;;;;;31.00;31.31;95789.59;5095908;28;20191;-61
2022/05/14 08:35:38;;;;;;;1999.90;999.90;;;;;;;30.81;31.79;95791.56;5095882;28;20198;-61
2022/05/14 08:38:04;;;;;;;1999.90;999.90;;;;;;;29.73;34.22;95786.88;5095751;28;20187;-58
2022/05/14 08:40:38;;;;;;;1999.90;999.90;;;;;;;28.82;36.40;95788.91;5096265;28;20271;-58
2022/05/14 08:43:08;;;;;;;1999.90;999.90;;;;;;;29.49;36.53;95779.00;5096392;28;20215;-58
2022/05/14 08:45:37;;;;;;;1999.90;999.90;;;;;;;30.53;34.18;95779.72;5095450;28;20192;-57
2022/05/14 08:48:19;;;;;;;1999.90;999.90;;;;;;;30.53;34.03;95779.72;5095954;28;20260;-58
2022/05/14 08:50:52;;;;;;;1999.90;999.90;;;;;;;31.91;32.00;95779.06;5095950;28;20180;-58
2022/05/14 08:53:22;;;;;;;1999.90;999.90;;;;;;;32.35;31.80;95781.28;5095745;28;20266;-61
2022/05/14 08:56:02;;;;;;;1999.90;999.90;;;;;;;31.68;31.84;95774.97;5095688;28;20218;-70
2022/05/14 08:58:42;;;;;;;1999.90;999.90;;;;;;;31.50;32.20;95780.59;5095867;28;20175;-71
2022/05/14 09:01:12;;;;;;;1999.90;999.90;;;;;;;31.91;32.28;95772.63;5096037;28;20218;-70
2022/05/14 09:03:43;;;;;;;1999.90;999.90;;;;;;;32.28;30.30;95779.03;5095408;28;20184;-71
2022/05/14 09:06:08;;;;;;;1999.90;999.90;;;;;;;31.63;31.05;95778.63;5095842;28;20210;-70
2022/05/14 09:08:33;;;;;;;1999.90;999.90;;;;;;;31.87;32.38;95775.78;5095425;28;20273;-70
2022/05/14 09:11:05;;;;;;;1999.90;999.90;;;;;;;31.65;30.99;95770.41;5095853;28;20236;-62
2022/05/14 09:13:41;;;;;;;1999.90;999.90;;;;;;;31.27;31.71;95779.34;5095861;28;20266;-57
2022/05/14 09:16:07;;;;;;;1999.90;999.90;;;;;;;30.73;31.95;95776.47;5095349;28;20239;-58
2022/05/14 09:18:41;;;;;;;1999.90;999.90;;;;;;;30.68;32.87;95768.81;5094836;28;20277;-58
2022/05/14 09:21:18;;;;;;;1999.90;999.90;;;;;;;29.27;34.25;95772.69;5095405;28;20276;-58
2022/05/14 09:23:49;;;;;;;1999.90;999.90;;;;;;;28.54;36.52;95762.09;5095195;28;20217;-58
2022/05/14 09:26:18;;;;;;;1999.90;999.90;;;;;;;29.99;34.36;95770.34;5095662;28;20210;-58
2022/05/14 09:28:50;;;;;;;1999.90;999.90;;;;;;;30.48;34.48;95760.81;5095297;28;20184;-68
2022/05/14 09:31:34;;;;;;;1999.90;999.90;;;;;;;30.03;35.34;95762.38;5116457;28;20184;-57
2022/05/14 09:34:11;;;;;;;1999.90;999.90;;;;;;;29.75;35.14;95762.53;5098734;28;20220;-59
2022/05/14 09:36:37;;;;;;;1999.90;999.90;;;;;;;30.33;33.67;95766.78;5099090;28;20168;-61
2022/05/14 09:39:10;;;;;;;1999.90;999.90;;;;;;;30.41;33.92;95767.00;5098338;28;20190;-61
2022/05/14 09:41:49;;;;;;;1999.90;999.90;;;;;;;31.27;34.08;95763.13;5098979;28;20187;-60
2022/05/14 09:44:21;;;;;;;1999.90;999.90;;;;;;;30.44;33.17;95765.94;5099127;28;20203;-60
2022/05/14 09:46:48;;;;;;;1999.90;999.90;;;;;;;30.74;34.75;95755.47;5098522;28;20196;-60
2022/05/14 09:49:24;;;;;;;1999.90;999.90;;;;;;;31.56;32.78;95762.28;5098480;28;20176;-60
2022/05/14 09:52:05;;;;;;;1999.90;999.90;;;;;;;31.66;33.37;95748.53;5098491;28;20176;-61
2022/05/14 09:54:57;;;;;;;1999.90;999.90;;;;;;;33.00;32.09;95747.50;5098511;28;20190;-61
2022/05/14 09:57:31;;;;;;;1999.90;999.90;;;;;;;33.03;31.84;95751.34;5096047;28;20231;-60
2022/05/14 10:00:03;;;;;;;1999.90;999.90;;;;;;;31.54;32.58;95747.94;5097855;28;20331;-61
2022/05/14 10:02:50;;;;;;;1999.90;999.90;;;;;;;31.46;32.76;95752.63;5098152;28;20184;-60
2022/05/14 10:05:37;;;;;;;1999.90;999.90;;;;;;;29.96;33.58;95760.09;5116272;28;20180;-60
2022/05/14 10:08:36;;;;;;;1999.90;999.90;;;;;;;28.03;36.70;95755.66;5098010;28;20183;-60
2022/05/14 10:11:23;;;;;;;1999.90;999.90;;;;;;;26.99;38.79;95753.19;5098417;28;20187;-60
2022/05/14 10:14:23;;;;;;;1999.90;999.90;;;;;;;26.33;41.36;95744.31;5098465;28;20194;-60
2022/05/14 10:17:12;;;;;;;1999.90;999.90;;;;;;;25.36;42.42;95749.19;5098135;28;20222;-61
2022/05/14 10:20:12;;;;;;;1999.90;999.90;;;;;;;25.06;44.66;95748.53;5097833;28;20180;-62
2022/05/14 10:28:54;;;;;;;1999.90;999.90;;;;;;;26.19;44.40;95742.44;5116223;28;20210;-60
2022/05/14 10:31:48;;;;;;;1999.90;999.90;;;;;;;26.92;41.59;95736.84;5098117;28;20296;-60
2022/05/14 10:34:18;;;;;;;1999.90;999.90;;;;;;;26.90;41.85;95730.97;5097913;28;20300;-60
2022/05/14 10:36:58;;;;;;;1999.90;999.90;;;;;;;27.78;40.82;95731.31;5098052;28;20180;-61
2022/05/14 10:39:45;;;;;;;1999.90;999.90;;;;;;;28.76;37.76;95731.88;5097898;28;20187;-62
2022/05/14 10:42:26;;;;;;;1999.90;999.90;;;;;;;29.60;36.47;95733.19;5097879;28;20243;-60
2022/05/14 10:45:17;;;;;;;1999.90;999.90;;;;;;;29.02;36.48;95723.91;5098298;28;20275;-62
2022/05/14 10:47:47;;;;;;;1999.90;999.90;;;;;;;29.27;34.33;95724.84;5097536;28;20228;-58
2022/05/14 10:50:18;;;;;;;1999.90;999.90;;;;;;;28.04;35.72;95720.66;5097392;28;20176;-57
2022/05/14 10:52:46;;;;;;;1999.90;999.90;;;;;;;28.07;36.69;95722.44;5097323;28;20188;-59
2022/05/14 10:55:47;;;;;;;1999.90;999.90;;;;;;;27.96;37.53;95719.63;5097326;28;20194;-59
2022/05/14 10:58:35;;;;;;;1999.90;999.90;;;;;;;28.46;37.17;95718.88;5058894;28;20205;-57
2022/05/14 11:01:01;;;;;;;1999.90;999.90;;;;;;;29.03;36.83;95710.63;5097699;28;20180;-67
2022/05/14 11:03:31;;;;;;;1999.90;999.90;;;;;;;29.61;35.55;95709.38;5115305;28;20179;-57
2022/05/14 11:06:02;;;;;;;1999.90;999.90;;;;;;;30.04;35.07;95716.00;5097306;28;20300;-67
2022/05/14 11:08:32;;;;;;;1999.90;999.90;;;;;;;29.71;35.29;95710.59;5096997;28;20184;-68
2022/05/14 11:11:09;;;;;;;1999.90;999.90;;;;;;;29.79;35.21;95705.94;5097327;28;20209;-68
2022/05/14 11:13:36;;;;;;;1999.90;999.90;;;;;;;29.91;34.03;95702.50;5097633;28;20190;-68
2022/05/14 11:16:06;;;;;;;1999.90;999.90;;;;;;;29.00;35.07;95706.00;5097054;28;20229;-69
2022/05/14 11:18:52;;;;;;;1999.90;999.90;;;;;;;28.27;36.90;95705.31;5097248;28;20183;-67